sensor_id;sensor_type;location;lat;lon;timestamp;temperature;humidity
46041;DHT22;31779;49.124;19.190;2022-10-28T00:03:44;7.90;99.90
46041;DHT22;31779;49.124;19.190;2022-10-28T00:06:18;7.90;99.90
46041;DHT22;31779;49.124;19.190;2022-10-28T00:08:47;8.00;99.90
46041;DHT22;31779;49.124;19.190;2022-10-28T00:11:24;8.10;99.90
46041;DHT22;31779;49.124;19.190;2022-10-28T00:13:54;8.20;99.90
46041;DHT22;31779;49.124;19.190;2022-10-28T00:16:25;8.20;99.90
46041;DHT22;31779;49.124;19.190;2022-10-28T00:18:53;8.20;99.90
46041;DHT22;31779;49.124;19.190;2022-10-28T00:21:24;8.20;99.90
46041;DHT22;31779;49.124;19.190;2022-10-28T00:23:52;8.10;99.90
46041;DHT22;31779;49.124;19.190;2022-10-28T00:26:23;8.10;99.90
46041;DHT22;31779;49.124;19.190;2022-10-28T00:29:08;8.10;99.90
46041;DHT22;31779;49.124;19.190;2022-10-28T00:31:36;8.10;99.90
46041;DHT22;31779;49.124;19.190;2022-10-28T00:34:06;8.10;99.90
46041;DHT22;31779;49.124;19.190;2022-10-28T00:36:38;8.10;99.90
46041;DHT22;31779;49.124;19.190;2022-10-28T00:39:12;8.00;99.90
46041;DHT22;31779;49.124;19.190;2022-10-28T00:41:42;8.10;99.90
46041;DHT22;31779;49.124;19.190;2022-10-28T00:47:27;8.20;99.90
46041;DHT22;31779;49.124;19.190;2022-10-28T00:53:15;8.20;99.90
46041;DHT22;31779;49.124;19.190;2022-10-28T00:56:02;8.10;99.90
46041;DHT22;31779;49.124;19.190;2022-10-28T00:58:45;8.10;99.90
46041;DHT22;31779;49.124;19.190;2022-10-28T01:01:34;8.20;99.90
46041;DHT22;31779;49.124;19.190;2022-10-28T01:04:15;8.20;99.90
46041;DHT22;31779;49.124;19.190;2022-10-28T01:06:45;8.30;99.90
46041;DHT22;31779;49.124;19.190;2022-10-28T01:09:14;8.30;99.90
46041;DHT22;31779;49.124;19.190;2022-10-28T01:11:53;8.20;99.90
46041;DHT22;31779;49.124;19.190;2022-10-28T01:25:15;8.10;99.90
46041;DHT22;31779;49.124;19.190;2022-10-28T01:34:23;8.10;99.90
46041;DHT22;31779;49.124;19.190;2022-10-28T01:36:32;8.00;99.90
46041;DHT22;31779;49.124;19.190;2022-10-28T01:41:57;8.00;99.90
46041;DHT22;31779;49.124;19.190;2022-10-28T01:47:15;8.10;99.90
46041;DHT22;31779;49.124;19.190;2022-10-28T01:50:22;7.80;99.90
46041;DHT22;31779;49.124;19.190;2022-10-28T01:52:53;7.80;99.90
46041;DHT22;31779;49.124;19.190;2022-10-28T01:55:29;7.90;99.90
46041;DHT22;31779;49.124;19.190;2022-10-28T01:58:00;8.00;99.90
46041;DHT22;31779;49.124;19.190;2022-10-28T02:00:31;8.00;99.90
46041;DHT22;31779;49.124;19.190;2022-10-28T02:03:00;7.90;99.90
46041;DHT22;31779;49.124;19.190;2022-10-28T02:11:07;7.80;99.90
46041;DHT22;31779;49.124;19.190;2022-10-28T02:16:49;7.90;99.90
46041;DHT22;31779;49.124;19.190;2022-10-28T02:19:42;7.90;99.90
46041;DHT22;31779;49.124;19.190;2022-10-28T02:25:12;7.70;99.90
46041;DHT22;31779;49.124;19.190;2022-10-28T02:31:19;7.70;99.90
46041;DHT22;31779;49.124;19.190;2022-10-28T02:33:32;7.70;99.90
46041;DHT22;31779;49.124;19.190;2022-10-28T02:36:05;7.70;99.90
46041;DHT22;31779;49.124;19.190;2022-10-28T02:38:41;7.70;99.90
46041;DHT22;31779;49.124;19.190;2022-10-28T02:41:32;7.60;99.90
46041;DHT22;31779;49.124;19.190;2022-10-28T02:44:09;7.70;99.90
46041;DHT22;31779;49.124;19.190;2022-10-28T02:46:40;7.60;99.90
46041;DHT22;31779;49.124;19.190;2022-10-28T02:49:11;7.50;99.90
46041;DHT22;31779;49.124;19.190;2022-10-28T02:51:56;7.50;99.90
46041;DHT22;31779;49.124;19.190;2022-10-28T02:57:14;7.50;99.90
46041;DHT22;31779;49.124;19.190;2022-10-28T02:59:42;7.40;99.90
46041;DHT22;31779;49.124;19.190;2022-10-28T03:02:09;7.40;99.90
46041;DHT22;31779;49.124;19.190;2022-10-28T03:04:37;7.30;99.90
46041;DHT22;31779;49.124;19.190;2022-10-28T03:07:05;7.30;99.90
46041;DHT22;31779;49.124;19.190;2022-10-28T03:09:32;7.40;99.90
46041;DHT22;31779;49.124;19.190;2022-10-28T03:12:00;7.40;99.90
46041;DHT22;31779;49.124;19.190;2022-10-28T03:14:28;7.30;99.90
46041;DHT22;31779;49.124;19.190;2022-10-28T03:16:56;7.20;99.90
46041;DHT22;31779;49.124;19.190;2022-10-28T03:19:23;7.20;99.90
46041;DHT22;31779;49.124;19.190;2022-10-28T03:21:51;7.30;99.90
46041;DHT22;31779;49.124;19.190;2022-10-28T03:24:19;7.20;99.90
46041;DHT22;31779;49.124;19.190;2022-10-28T03:26:46;7.30;99.90
46041;DHT22;31779;49.124;19.190;2022-10-28T03:29:14;7.30;99.90
46041;DHT22;31779;49.124;19.190;2022-10-28T03:31:42;7.30;99.90
46041;DHT22;31779;49.124;19.190;2022-10-28T03:34:09;7.20;99.90
46041;DHT22;31779;49.124;19.190;2022-10-28T03:36:37;7.20;99.90
46041;DHT22;31779;49.124;19.190;2022-10-28T03:39:05;7.10;99.90
46041;DHT22;31779;49.124;19.190;2022-10-28T03:41:33;7.00;99.90
46041;DHT22;31779;49.124;19.190;2022-10-28T03:44:00;7.10;99.90
46041;DHT22;31779;49.124;19.190;2022-10-28T03:46:28;7.10;99.90
46041;DHT22;31779;49.124;19.190;2022-10-28T03:49:01;6.70;99.90
46041;DHT22;31779;49.124;19.190;2022-10-28T03:51:29;6.60;99.90
46041;DHT22;31779;49.124;19.190;2022-10-28T03:53:57;6.90;99.90
46041;DHT22;31779;49.124;19.190;2022-10-28T03:56:25;7.10;99.90
46041;DHT22;31779;49.124;19.190;2022-10-28T03:58:52;7.00;99.90
46041;DHT22;31779;49.124;19.190;2022-10-28T04:01:20;7.00;99.90
46041;DHT22;31779;49.124;19.190;2022-10-28T04:03:48;6.90;99.90
46041;DHT22;31779;49.124;19.190;2022-10-28T04:06:16;6.90;99.90
46041;DHT22;31779;49.124;19.190;2022-10-28T04:08:44;7.00;99.90
46041;DHT22;31779;49.124;19.190;2022-10-28T04:11:11;7.10;99.90
46041;DHT22;31779;49.124;19.190;2022-10-28T04:13:39;7.00;99.90
46041;DHT22;31779;49.124;19.190;2022-10-28T04:16:07;7.10;99.90
46041;DHT22;31779;49.124;19.190;2022-10-28T04:18:34;7.00;99.90
46041;DHT22;31779;49.124;19.190;2022-10-28T04:21:02;7.10;99.90
46041;DHT22;31779;49.124;19.190;2022-10-28T04:23:31;7.20;99.90
46041;DHT22;31779;49.124;19.190;2022-10-28T04:25:59;7.20;99.90
46041;DHT22;31779;49.124;19.190;2022-10-28T04:28:27;7.30;99.90
46041;DHT22;31779;49.124;19.190;2022-10-28T04:30:54;7.10;99.90
46041;DHT22;31779;49.124;19.190;2022-10-28T04:33:22;7.10;99.90
46041;DHT22;31779;49.124;19.190;2022-10-28T04:35:50;7.20;99.90
46041;DHT22;31779;49.124;19.190;2022-10-28T04:38:19;7.30;99.90
46041;DHT22;31779;49.124;19.190;2022-10-28T04:40:47;7.30;99.90
46041;DHT22;31779;49.124;19.190;2022-10-28T04:43:15;7.20;99.90
46041;DHT22;31779;49.124;19.190;2022-10-28T04:45:44;7.20;99.90
46041;DHT22;31779;49.124;19.190;2022-10-28T04:48:13;6.80;99.90
46041;DHT22;31779;49.124;19.190;2022-10-28T04:50:41;6.90;99.90
46041;DHT22;31779;49.124;19.190;2022-10-28T04:53:11;6.90;99.90
46041;DHT22;31779;49.124;19.190;2022-10-28T04:55:38;7.00;99.90
46041;DHT22;31779;49.124;19.190;2022-10-28T04:58:07;7.10;99.90
46041;DHT22;31779;49.124;19.190;2022-10-28T05:00:36;7.20;99.90
46041;DHT22;31779;49.124;19.190;2022-10-28T05:03:04;7.20;99.90
46041;DHT22;31779;49.124;19.190;2022-10-28T05:05:31;7.10;99.90
46041;DHT22;31779;49.124;19.190;2022-10-28T05:07:59;7.20;99.90
46041;DHT22;31779;49.124;19.190;2022-10-28T05:10:28;7.10;99.90
46041;DHT22;31779;49.124;19.190;2022-10-28T05:12:56;7.10;99.90
46041;DHT22;31779;49.124;19.190;2022-10-28T05:15:24;7.20;99.90
46041;DHT22;31779;49.124;19.190;2022-10-28T05:17:53;7.20;99.90
46041;DHT22;31779;49.124;19.190;2022-10-28T05:20:22;7.20;99.90
46041;DHT22;31779;49.124;19.190;2022-10-28T05:22:52;7.20;99.90
46041;DHT22;31779;49.124;19.190;2022-10-28T05:25:22;7.10;99.90
46041;DHT22;31779;49.124;19.190;2022-10-28T05:27:51;7.10;99.90
46041;DHT22;31779;49.124;19.190;2022-10-28T05:30:19;7.20;99.90
46041;DHT22;31779;49.124;19.190;2022-10-28T05:32:47;7.20;99.90
46041;DHT22;31779;49.124;19.190;2022-10-28T05:35:20;7.20;99.90
46041;DHT22;31779;49.124;19.190;2022-10-28T05:37:49;7.20;99.90
46041;DHT22;31779;49.124;19.190;2022-10-28T05:40:17;7.20;99.90
46041;DHT22;31779;49.124;19.190;2022-10-28T05:42:45;7.30;99.90
46041;DHT22;31779;49.124;19.190;2022-10-28T05:45:13;7.20;99.90
46041;DHT22;31779;49.124;19.190;2022-10-28T05:47:45;7.20;99.90
46041;DHT22;31779;49.124;19.190;2022-10-28T05:50:16;7.20;99.90
46041;DHT22;31779;49.124;19.190;2022-10-28T05:52:48;7.20;99.90
46041;DHT22;31779;49.124;19.190;2022-10-28T05:55:18;7.20;99.90
46041;DHT22;31779;49.124;19.190;2022-10-28T05:57:48;7.20;99.90
46041;DHT22;31779;49.124;19.190;2022-10-28T06:00:18;7.20;99.90
46041;DHT22;31779;49.124;19.190;2022-10-28T06:02:46;7.20;99.90
46041;DHT22;31779;49.124;19.190;2022-10-28T06:05:15;7.10;99.90
46041;DHT22;31779;49.124;19.190;2022-10-28T06:07:43;7.10;99.90
46041;DHT22;31779;49.124;19.190;2022-10-28T06:10:11;7.10;99.90
46041;DHT22;31779;49.124;19.190;2022-10-28T06:12:39;7.10;99.90
46041;DHT22;31779;49.124;19.190;2022-10-28T06:15:07;7.20;99.90
46041;DHT22;31779;49.124;19.190;2022-10-28T06:17:35;7.20;99.90
46041;DHT22;31779;49.124;19.190;2022-10-28T06:20:05;7.30;99.90
46041;DHT22;31779;49.124;19.190;2022-10-28T06:22:33;7.40;99.90
46041;DHT22;31779;49.124;19.190;2022-10-28T06:25:01;7.50;99.90
46041;DHT22;31779;49.124;19.190;2022-10-28T06:27:29;7.40;99.90
46041;DHT22;31779;49.124;19.190;2022-10-28T06:29:58;7.40;99.90
46041;DHT22;31779;49.124;19.190;2022-10-28T06:32:26;7.50;99.90
46041;DHT22;31779;49.124;19.190;2022-10-28T06:34:54;7.50;99.90
46041;DHT22;31779;49.124;19.190;2022-10-28T06:37:22;7.50;99.90
46041;DHT22;31779;49.124;19.190;2022-10-28T06:39:50;7.60;99.90
46041;DHT22;31779;49.124;19.190;2022-10-28T06:42:20;7.60;99.90
46041;DHT22;31779;49.124;19.190;2022-10-28T06:44:49;7.40;99.90
46041;DHT22;31779;49.124;19.190;2022-10-28T06:47:18;7.50;99.90
46041;DHT22;31779;49.124;19.190;2022-10-28T06:49:46;7.60;99.90
46041;DHT22;31779;49.124;19.190;2022-10-28T06:52:13;7.70;99.90
46041;DHT22;31779;49.124;19.190;2022-10-28T06:54:42;7.90;99.90
46041;DHT22;31779;49.124;19.190;2022-10-28T06:57:10;8.00;99.90
46041;DHT22;31779;49.124;19.190;2022-10-28T06:59:38;8.00;99.90
46041;DHT22;31779;49.124;19.190;2022-10-28T07:02:11;8.20;99.90
46041;DHT22;31779;49.124;19.190;2022-10-28T07:04:40;8.30;99.90
46041;DHT22;31779;49.124;19.190;2022-10-28T07:07:08;8.40;99.90
46041;DHT22;31779;49.124;19.190;2022-10-28T07:09:36;8.60;99.90
46041;DHT22;31779;49.124;19.190;2022-10-28T07:12:06;8.80;99.90
46041;DHT22;31779;49.124;19.190;2022-10-28T07:14:34;8.80;99.90
46041;DHT22;31779;49.124;19.190;2022-10-28T07:17:02;8.80;99.90
46041;DHT22;31779;49.124;19.190;2022-10-28T07:19:30;8.80;99.90
46041;DHT22;31779;49.124;19.190;2022-10-28T07:21:58;8.90;99.90
46041;DHT22;31779;49.124;19.190;2022-10-28T07:24:26;8.90;99.90
46041;DHT22;31779;49.124;19.190;2022-10-28T07:26:59;8.80;99.90
46041;DHT22;31779;49.124;19.190;2022-10-28T07:29:27;8.90;99.90
46041;DHT22;31779;49.124;19.190;2022-10-28T07:31:55;9.10;99.90
46041;DHT22;31779;49.124;19.190;2022-10-28T07:34:23;8.90;99.90
46041;DHT22;31779;49.124;19.190;2022-10-28T07:36:54;8.40;99.90
46041;DHT22;31779;49.124;19.190;2022-10-28T07:39:22;8.90;99.90
46041;DHT22;31779;49.124;19.190;2022-10-28T07:41:50;8.60;99.90
46041;DHT22;31779;49.124;19.190;2022-10-28T07:44:18;8.80;99.90
46041;DHT22;31779;49.124;19.190;2022-10-28T07:46:46;9.40;99.90
46041;DHT22;31779;49.124;19.190;2022-10-28T07:49:14;9.70;99.90
46041;DHT22;31779;49.124;19.190;2022-10-28T07:51:42;10.00;99.90
46041;DHT22;31779;49.124;19.190;2022-10-28T07:54:10;10.00;99.90
46041;DHT22;31779;49.124;19.190;2022-10-28T07:56:39;9.50;99.90
46041;DHT22;31779;49.124;19.190;2022-10-28T07:59:07;9.40;99.90
46041;DHT22;31779;49.124;19.190;2022-10-28T08:01:35;9.70;99.90
46041;DHT22;31779;49.124;19.190;2022-10-28T08:04:04;9.90;99.90
46041;DHT22;31779;49.124;19.190;2022-10-28T08:06:33;9.70;99.90
46041;DHT22;31779;49.124;19.190;2022-10-28T08:09:02;9.40;99.90
46041;DHT22;31779;49.124;19.190;2022-10-28T08:11:30;9.70;99.90
46041;DHT22;31779;49.124;19.190;2022-10-28T08:14:00;9.70;99.90
46041;DHT22;31779;49.124;19.190;2022-10-28T08:16:28;10.20;99.90
46041;DHT22;31779;49.124;19.190;2022-10-28T08:18:59;10.70;99.90
46041;DHT22;31779;49.124;19.190;2022-10-28T08:21:36;10.50;99.90
46041;DHT22;31779;49.124;19.190;2022-10-28T08:24:04;10.70;99.90
46041;DHT22;31779;49.124;19.190;2022-10-28T08:26:33;10.40;99.90
46041;DHT22;31779;49.124;19.190;2022-10-28T08:29:01;10.30;99.90
46041;DHT22;31779;49.124;19.190;2022-10-28T08:31:33;11.00;99.90
46041;DHT22;31779;49.124;19.190;2022-10-28T08:34:01;11.50;99.90
46041;DHT22;31779;49.124;19.190;2022-10-28T08:36:29;11.70;99.90
46041;DHT22;31779;49.124;19.190;2022-10-28T08:38:57;11.80;99.90
46041;DHT22;31779;49.124;19.190;2022-10-28T08:41:44;11.20;99.90
46041;DHT22;31779;49.124;19.190;2022-10-28T08:49:45;11.70;99.90
46041;DHT22;31779;49.124;19.190;2022-10-28T08:54:53;13.70;99.90
46041;DHT22;31779;49.124;19.190;2022-10-28T08:57:37;13.70;99.90
46041;DHT22;31779;49.124;19.190;2022-10-28T09:00:22;13.20;99.90
46041;DHT22;31779;49.124;19.190;2022-10-28T09:03:23;12.50;99.90
46041;DHT22;31779;49.124;19.190;2022-10-28T09:06:10;12.50;99.90
46041;DHT22;31779;49.124;19.190;2022-10-28T09:08:41;12.40;99.90
46041;DHT22;31779;49.124;19.190;2022-10-28T09:16:48;11.90;99.90
46041;DHT22;31779;49.124;19.190;2022-10-28T09:27:29;13.60;99.90
46041;DHT22;31779;49.124;19.190;2022-10-28T09:35:40;15.90;99.90
46041;DHT22;31779;49.124;19.190;2022-10-28T09:40:55;18.00;99.10
46041;DHT22;31779;49.124;19.190;2022-10-28T09:43:37;18.50;91.80
46041;DHT22;31779;49.124;19.190;2022-10-28T09:46:11;16.30;95.80
46041;DHT22;31779;49.124;19.190;2022-10-28T09:48:47;19.40;91.60
46041;DHT22;31779;49.124;19.190;2022-10-28T09:51:27;20.30;89.60
46041;DHT22;31779;49.124;19.190;2022-10-28T09:53:57;23.70;78.70
46041;DHT22;31779;49.124;19.190;2022-10-28T09:56:27;20.80;74.20
46041;DHT22;31779;49.124;19.190;2022-10-28T09:59:00;25.70;69.60
46041;DHT22;31779;49.124;19.190;2022-10-28T10:01:37;25.50;62.70
46041;DHT22;31779;49.124;19.190;2022-10-28T10:04:20;27.20;59.20
46041;DHT22;31779;49.124;19.190;2022-10-28T10:07:08;30.10;53.40
46041;DHT22;31779;49.124;19.190;2022-10-28T10:09:38;32.40;49.50
46041;DHT22;31779;49.124;19.190;2022-10-28T10:12:10;34.20;44.50
46041;DHT22;31779;49.124;19.190;2022-10-28T10:14:45;27.60;51.00
46041;DHT22;31779;49.124;19.190;2022-10-28T10:17:19;24.00;53.10
46041;DHT22;31779;49.124;19.190;2022-10-28T10:28:00;25.10;49.20
46041;DHT22;31779;49.124;19.190;2022-10-28T10:30:37;28.40;50.50
46041;DHT22;31779;49.124;19.190;2022-10-28T10:33:16;30.10;47.70
46041;DHT22;31779;49.124;19.190;2022-10-28T10:35:52;28.50;44.90
46041;DHT22;31779;49.124;19.190;2022-10-28T10:38:27;30.80;46.00
46041;DHT22;31779;49.124;19.190;2022-10-28T10:40:56;34.50;42.60
46041;DHT22;31779;49.124;19.190;2022-10-28T10:43:32;37.70;38.90
46041;DHT22;31779;49.124;19.190;2022-10-28T10:46:01;30.50;39.90
46041;DHT22;31779;49.124;19.190;2022-10-28T10:48:32;31.70;42.60
46041;DHT22;31779;49.124;19.190;2022-10-28T10:51:07;28.40;42.40
46041;DHT22;31779;49.124;19.190;2022-10-28T10:53:37;34.10;41.50
46041;DHT22;31779;49.124;19.190;2022-10-28T10:56:09;32.70;41.40
46041;DHT22;31779;49.124;19.190;2022-10-28T10:58:40;27.10;44.60
46041;DHT22;31779;49.124;19.190;2022-10-28T11:01:20;24.90;51.00
46041;DHT22;31779;49.124;19.190;2022-10-28T11:03:55;28.10;45.70
46041;DHT22;31779;49.124;19.190;2022-10-28T11:06:30;26.30;48.80
46041;DHT22;31779;49.124;19.190;2022-10-28T11:09:04;25.00;48.10
46041;DHT22;31779;49.124;19.190;2022-10-28T11:11:39;26.40;48.90
46041;DHT22;31779;49.124;19.190;2022-10-28T11:27:47;19.90;61.60
46041;DHT22;31779;49.124;19.190;2022-10-28T11:30:50;19.90;65.70
46041;DHT22;31779;49.124;19.190;2022-10-28T11:33:35;18.90;65.10
46041;DHT22;31779;49.124;19.190;2022-10-28T11:44:11;22.80;58.30
46041;DHT22;31779;49.124;19.190;2022-10-28T11:47:14;26.50;54.70
46041;DHT22;31779;49.124;19.190;2022-10-28T11:55:34;22.90;56.70
46041;DHT22;31779;49.124;19.190;2022-10-28T12:09:31;22.60;61.70
46041;DHT22;31779;49.124;19.190;2022-10-28T12:23:28;22.20;65.30
46041;DHT22;31779;49.124;19.190;2022-10-28T12:25:59;22.00;66.00
46041;DHT22;31779;49.124;19.190;2022-10-28T12:28:32;22.10;68.00
46041;DHT22;31779;49.124;19.190;2022-10-28T12:31:06;20.50;69.70
46041;DHT22;31779;49.124;19.190;2022-10-28T12:33:47;21.00;71.60
46041;DHT22;31779;49.124;19.190;2022-10-28T12:39:18;21.50;68.30
46041;DHT22;31779;49.124;19.190;2022-10-28T12:44:51;21.30;68.90
46041;DHT22;31779;49.124;19.190;2022-10-28T12:47:29;20.70;71.70
46041;DHT22;31779;49.124;19.190;2022-10-28T12:53:34;21.10;69.90
46041;DHT22;31779;49.124;19.190;2022-10-28T12:56:08;21.30;70.60
46041;DHT22;31779;49.124;19.190;2022-10-28T12:58:53;21.80;69.30
46041;DHT22;31779;49.124;19.190;2022-10-28T13:01:26;21.90;69.60
46041;DHT22;31779;49.124;19.190;2022-10-28T13:03:56;21.70;69.40
46041;DHT22;31779;49.124;19.190;2022-10-28T13:09:49;21.00;70.70
46041;DHT22;31779;49.124;19.190;2022-10-28T13:23:51;24.50;64.40
46041;DHT22;31779;49.124;19.190;2022-10-28T13:26:30;25.40;61.70
46041;DHT22;31779;49.124;19.190;2022-10-28T13:29:02;25.90;60.20
46041;DHT22;31779;49.124;19.190;2022-10-28T13:31:44;26.30;58.60
46041;DHT22;31779;49.124;19.190;2022-10-28T13:34:14;26.00;59.40
46041;DHT22;31779;49.124;19.190;2022-10-28T13:36:45;26.70;58.70
46041;DHT22;31779;49.124;19.190;2022-10-28T13:44:46;27.70;56.10
46041;DHT22;31779;49.124;19.190;2022-10-28T13:47:30;26.80;56.20
46041;DHT22;31779;49.124;19.190;2022-10-28T13:58:05;22.80;65.20
46041;DHT22;31779;49.124;19.190;2022-10-28T14:00:46;23.00;63.30
46041;DHT22;31779;49.124;19.190;2022-10-28T14:03:28;22.80;63.90
46041;DHT22;31779;49.124;19.190;2022-10-28T14:05:58;22.00;66.40
46041;DHT22;31779;49.124;19.190;2022-10-28T14:08:29;21.10;67.60
46041;DHT22;31779;49.124;19.190;2022-10-28T14:11:21;20.40;71.90
46041;DHT22;31779;49.124;19.190;2022-10-28T14:13:51;19.20;76.20
46041;DHT22;31779;49.124;19.190;2022-10-28T14:19:02;19.50;74.60
46041;DHT22;31779;49.124;19.190;2022-10-28T14:21:42;18.80;78.30
46041;DHT22;31779;49.124;19.190;2022-10-28T14:24:33;18.00;82.00
46041;DHT22;31779;49.124;19.190;2022-10-28T14:29:43;17.70;84.50
46041;DHT22;31779;49.124;19.190;2022-10-28T14:40:48;16.10;99.90
46041;DHT22;31779;49.124;19.190;2022-10-28T14:48:52;16.00;99.90
46041;DHT22;31779;49.124;19.190;2022-10-28T14:51:26;15.60;99.90
46041;DHT22;31779;49.124;19.190;2022-10-28T14:54:00;15.30;99.90
46041;DHT22;31779;49.124;19.190;2022-10-28T14:56:30;15.30;99.90
46041;DHT22;31779;49.124;19.190;2022-10-28T15:02:29;14.70;99.90
46041;DHT22;31779;49.124;19.190;2022-10-28T15:05:18;14.20;99.90
46041;DHT22;31779;49.124;19.190;2022-10-28T15:07:51;14.40;99.90
46041;DHT22;31779;49.124;19.190;2022-10-28T15:10:27;14.10;99.90
46041;DHT22;31779;49.124;19.190;2022-10-28T15:12:59;14.10;99.90
46041;DHT22;31779;49.124;19.190;2022-10-28T15:15:32;14.20;99.90
46041;DHT22;31779;49.124;19.190;2022-10-28T15:18:16;14.10;99.90
46041;DHT22;31779;49.124;19.190;2022-10-28T15:20:45;13.90;99.90
46041;DHT22;31779;49.124;19.190;2022-10-28T15:23:22;13.70;99.90
46041;DHT22;31779;49.124;19.190;2022-10-28T15:26:11;13.40;99.90
46041;DHT22;31779;49.124;19.190;2022-10-28T15:28:41;13.30;99.90
46041;DHT22;31779;49.124;19.190;2022-10-28T15:31:09;12.90;99.90
46041;DHT22;31779;49.124;19.190;2022-10-28T15:33:39;13.00;99.90
46041;DHT22;31779;49.124;19.190;2022-10-28T15:36:22;13.00;99.90
46041;DHT22;31779;49.124;19.190;2022-10-28T15:39:03;12.90;99.90
46041;DHT22;31779;49.124;19.190;2022-10-28T15:41:43;12.90;99.90
46041;DHT22;31779;49.124;19.190;2022-10-28T15:44:34;12.80;99.90
46041;DHT22;31779;49.124;19.190;2022-10-28T15:47:22;12.70;99.90
46041;DHT22;31779;49.124;19.190;2022-10-28T15:52:44;12.40;99.90
46041;DHT22;31779;49.124;19.190;2022-10-28T15:57:57;12.30;99.90
46041;DHT22;31779;49.124;19.190;2022-10-28T16:00:31;12.30;99.90
46041;DHT22;31779;49.124;19.190;2022-10-28T16:03:03;12.20;99.90
46041;DHT22;31779;49.124;19.190;2022-10-28T16:11:03;11.90;99.90
46041;DHT22;31779;49.124;19.190;2022-10-28T16:13:35;11.80;99.90
46041;DHT22;31779;49.124;19.190;2022-10-28T16:16:10;11.80;99.90
46041;DHT22;31779;49.124;19.190;2022-10-28T16:18:45;11.70;99.90
46041;DHT22;31779;49.124;19.190;2022-10-28T16:21:20;11.90;99.90
46041;DHT22;31779;49.124;19.190;2022-10-28T16:23:51;11.70;99.90
46041;DHT22;31779;49.124;19.190;2022-10-28T16:26:26;11.60;99.90
46041;DHT22;31779;49.124;19.190;2022-10-28T16:28:55;11.50;99.90
46041;DHT22;31779;49.124;19.190;2022-10-28T16:31:26;11.50;99.90
46041;DHT22;31779;49.124;19.190;2022-10-28T16:33:57;11.50;99.90
46041;DHT22;31779;49.124;19.190;2022-10-28T16:36:27;11.40;99.90
46041;DHT22;31779;49.124;19.190;2022-10-28T16:38:55;11.30;99.90
46041;DHT22;31779;49.124;19.190;2022-10-28T16:41:30;11.20;99.90
46041;DHT22;31779;49.124;19.190;2022-10-28T16:43:58;11.20;99.90
46041;DHT22;31779;49.124;19.190;2022-10-28T16:46:27;11.10;99.90
46041;DHT22;31779;49.124;19.190;2022-10-28T16:48:55;11.00;99.90
46041;DHT22;31779;49.124;19.190;2022-10-28T16:51:23;11.10;99.90
46041;DHT22;31779;49.124;19.190;2022-10-28T16:53:51;11.00;99.90
46041;DHT22;31779;49.124;19.190;2022-10-28T16:56:19;11.00;99.90
46041;DHT22;31779;49.124;19.190;2022-10-28T16:58:47;11.00;99.90
46041;DHT22;31779;49.124;19.190;2022-10-28T17:01:19;10.90;99.90
46041;DHT22;31779;49.124;19.190;2022-10-28T17:03:47;10.90;99.90
46041;DHT22;31779;49.124;19.190;2022-10-28T17:06:15;10.80;99.90
46041;DHT22;31779;49.124;19.190;2022-10-28T17:08:43;10.70;99.90
46041;DHT22;31779;49.124;19.190;2022-10-28T17:11:31;10.70;99.90
46041;DHT22;31779;49.124;19.190;2022-10-28T17:13:59;10.60;99.90
46041;DHT22;31779;49.124;19.190;2022-10-28T17:16:27;10.40;99.90
46041;DHT22;31779;49.124;19.190;2022-10-28T17:18:55;10.30;99.90
46041;DHT22;31779;49.124;19.190;2022-10-28T17:21:23;10.30;99.90
46041;DHT22;31779;49.124;19.190;2022-10-28T17:23:51;10.30;99.90
46041;DHT22;31779;49.124;19.190;2022-10-28T17:26:19;10.30;99.90
46041;DHT22;31779;49.124;19.190;2022-10-28T17:28:51;10.30;99.90
46041;DHT22;31779;49.124;19.190;2022-10-28T17:31:19;10.30;99.90
46041;DHT22;31779;49.124;19.190;2022-10-28T17:33:52;10.20;99.90
46041;DHT22;31779;49.124;19.190;2022-10-28T17:36:21;10.10;99.90
46041;DHT22;31779;49.124;19.190;2022-10-28T17:38:50;10.10;99.90
46041;DHT22;31779;49.124;19.190;2022-10-28T17:41:18;10.00;99.90
46041;DHT22;31779;49.124;19.190;2022-10-28T17:43:46;9.90;99.90
46041;DHT22;31779;49.124;19.190;2022-10-28T17:46:14;9.90;99.90
46041;DHT22;31779;49.124;19.190;2022-10-28T17:48:42;9.90;99.90
46041;DHT22;31779;49.124;19.190;2022-10-28T17:51:11;9.90;99.90
46041;DHT22;31779;49.124;19.190;2022-10-28T17:53:39;9.80;99.90
46041;DHT22;31779;49.124;19.190;2022-10-28T17:56:07;9.70;99.90
46041;DHT22;31779;49.124;19.190;2022-10-28T17:58:35;9.70;99.90
46041;DHT22;31779;49.124;19.190;2022-10-28T18:01:07;9.60;99.90
46041;DHT22;31779;49.124;19.190;2022-10-28T18:03:37;9.60;99.90
46041;DHT22;31779;49.124;19.190;2022-10-28T18:06:09;9.60;99.90
46041;DHT22;31779;49.124;19.190;2022-10-28T18:08:41;9.60;99.90
46041;DHT22;31779;49.124;19.190;2022-10-28T18:11:12;9.60;99.90
46041;DHT22;31779;49.124;19.190;2022-10-28T18:13:42;9.50;99.90
46041;DHT22;31779;49.124;19.190;2022-10-28T18:16:21;9.50;99.90
46041;DHT22;31779;49.124;19.190;2022-10-28T18:18:50;9.50;99.90
46041;DHT22;31779;49.124;19.190;2022-10-28T18:21:22;9.40;99.90
46041;DHT22;31779;49.124;19.190;2022-10-28T18:23:52;9.40;99.90
46041;DHT22;31779;49.124;19.190;2022-10-28T18:26:20;9.30;99.90
46041;DHT22;31779;49.124;19.190;2022-10-28T18:28:48;9.20;99.90
46041;DHT22;31779;49.124;19.190;2022-10-28T18:31:18;9.20;99.90
46041;DHT22;31779;49.124;19.190;2022-10-28T18:33:46;9.20;99.90
46041;DHT22;31779;49.124;19.190;2022-10-28T18:36:20;9.10;99.90
46041;DHT22;31779;49.124;19.190;2022-10-28T18:38:51;9.20;99.90
46041;DHT22;31779;49.124;19.190;2022-10-28T18:41:29;9.30;99.90
46041;DHT22;31779;49.124;19.190;2022-10-28T18:44:02;9.20;99.90
46041;DHT22;31779;49.124;19.190;2022-10-28T18:46:33;9.10;99.90
46041;DHT22;31779;49.124;19.190;2022-10-28T18:49:06;9.10;99.90
46041;DHT22;31779;49.124;19.190;2022-10-28T18:51:35;9.00;99.90
46041;DHT22;31779;49.124;19.190;2022-10-28T18:54:03;9.00;99.90
46041;DHT22;31779;49.124;19.190;2022-10-28T18:56:31;8.90;99.90
46041;DHT22;31779;49.124;19.190;2022-10-28T18:59:03;9.00;99.90
46041;DHT22;31779;49.124;19.190;2022-10-28T19:01:31;9.00;99.90
46041;DHT22;31779;49.124;19.190;2022-10-28T19:04:02;8.90;99.90
46041;DHT22;31779;49.124;19.190;2022-10-28T19:06:32;8.80;99.90
46041;DHT22;31779;49.124;19.190;2022-10-28T19:09:02;8.80;99.90
46041;DHT22;31779;49.124;19.190;2022-10-28T19:11:32;8.70;99.90
46041;DHT22;31779;49.124;19.190;2022-10-28T19:14:02;8.70;99.90
46041;DHT22;31779;49.124;19.190;2022-10-28T19:16:32;8.60;99.90
46041;DHT22;31779;49.124;19.190;2022-10-28T19:19:02;8.50;99.90
46041;DHT22;31779;49.124;19.190;2022-10-28T19:21:31;8.50;99.90
46041;DHT22;31779;49.124;19.190;2022-10-28T19:24:00;8.50;99.90